Time;durP1;ratioP1;P1;durP2;ratioP2;P2;SDS_P1;SDS_P2;PMS_P1;PMS_P2;Temp;Humidity;BMP_temperature;BMP_pressure;BME280_temperature;BME280_humidity;BME280_pressure;Samples;Min_cycle;Max_cycle;Signal;HPM_P1;HPM_P2
2021/10/09 00:00:38;;;;;;;44.45;28.40;;;6.30;99.90;;;;;;2106026;28;20129;-69
2021/10/09 00:01:39;;;;;;;44.50;28.15;;;6.30;99.90;;;;;;2105041;28;20545;-68
2021/10/09 00:02:40;;;;;;;45.45;28.90;;;6.30;99.90;;;;;;2106000;28;20405;-70
2021/10/09 00:03:40;;;;;;;46.35;28.52;;;6.30;99.90;;;;;;2105797;28;20429;-70
2021/10/09 00:04:41;;;;;;;44.50;27.00;;;6.30;99.90;;;;;;2105328;28;20048;-70
2021/10/09 00:05:42;;;;;;;48.25;30.00;;;6.30;99.90;;;;;;2096772;28;20036;-69
2021/10/09 00:06:42;;;;;;;46.70;28.15;;;6.30;99.90;;;;;;2096796;28;20020;-69
2021/10/09 00:07:43;;;;;;;45.55;28.95;;;6.20;99.90;;;;;;2105216;28;20087;-68
2021/10/09 00:08:44;;;;;;;45.53;28.67;;;6.20;99.90;;;;;;2105725;28;20048;-69
2021/10/09 00:09:45;;;;;;;50.35;29.60;;;6.20;99.90;;;;;;2105652;28;20119;-69
2021/10/09 00:10:46;;;;;;;51.10;29.85;;;6.20;99.90;;;;;;2105775;28;20040;-69
2021/10/09 00:11:47;;;;;;;47.75;29.20;;;6.20;99.90;;;;;;2104777;28;20039;-69
2021/10/09 00:12:47;;;;;;;49.60;29.33;;;6.20;99.90;;;;;;2105642;28;20038;-69
2021/10/09 00:13:48;;;;;;;50.08;30.48;;;6.20;99.90;;;;;;2105704;28;20039;-70
2021/10/09 00:14:49;;;;;;;48.38;29.38;;;6.20;99.90;;;;;;2105255;28;20028;-69
2021/10/09 00:15:49;;;;;;;46.38;28.98;;;6.10;99.90;;;;;;2096623;28;20027;-68
2021/10/09 00:16:50;;;;;;;47.10;28.48;;;6.20;99.90;;;;;;2096773;28;20043;-68
2021/10/09 00:17:51;;;;;;;47.90;28.65;;;6.20;99.90;;;;;;2105264;28;20024;-69
2021/10/09 00:18:52;;;;;;;46.88;28.80;;;6.10;99.90;;;;;;2105880;28;20544;-69
2021/10/09 00:19:52;;;;;;;48.47;29.55;;;6.20;99.90;;;;;;2105677;28;20024;-69
2021/10/09 00:20:53;;;;;;;48.63;29.45;;;6.20;99.90;;;;;;2105887;28;20055;-69
2021/10/09 00:21:54;;;;;;;47.85;28.92;;;6.10;99.90;;;;;;2104964;28;20028;-69
2021/10/09 00:22:54;;;;;;;48.58;29.67;;;6.10;99.90;;;;;;2105595;28;20028;-70
2021/10/09 00:23:57;;;;;;;43.25;27.95;;;6.10;99.90;;;;;;2105761;28;20020;-68
2021/10/09 00:24:57;;;;;;;47.03;28.60;;;6.10;99.90;;;;;;2105616;28;20042;-68
2021/10/09 00:25:58;;;;;;;45.33;28.92;;;6.10;99.90;;;;;;2105156;28;20035;-70
2021/10/09 00:26:59;;;;;;;44.03;28.52;;;6.10;99.90;;;;;;2105807;28;20028;-69
2021/10/09 00:28:00;;;;;;;45.83;29.02;;;6.10;99.90;;;;;;2105669;28;20035;-69
2021/10/09 00:29:00;;;;;;;50.45;28.75;;;6.10;99.90;;;;;;2105854;28;20035;-69
2021/10/09 00:30:03;;;;;;;47.83;29.20;;;6.10;99.90;;;;;;2105764;28;20036;-70
2021/10/09 00:31:04;;;;;;;46.03;29.15;;;6.10;99.90;;;;;;2104991;28;20043;-68
2021/10/09 00:32:05;;;;;;;46.22;28.50;;;6.10;99.90;;;;;;2104194;28;20506;-70
2021/10/09 00:33:05;;;;;;;45.72;28.27;;;6.10;99.90;;;;;;2096446;28;20082;-69
2021/10/09 00:34:06;;;;;;;47.72;29.55;;;6.10;99.90;;;;;;2104979;28;20057;-69
2021/10/09 00:35:07;;;;;;;44.03;28.73;;;6.10;99.90;;;;;;2105585;28;20111;-70
2021/10/09 00:36:08;;;;;;;47.42;29.50;;;6.00;99.90;;;;;;2105037;28;20521;-69
2021/10/09 00:37:08;;;;;;;45.60;28.92;;;6.00;99.90;;;;;;2105208;28;20023;-69
2021/10/09 00:38:09;;;;;;;47.78;28.63;;;6.00;99.90;;;;;;2104966;28;20162;-70
2021/10/09 00:39:10;;;;;;;47.97;30.45;;;6.00;99.90;;;;;;2105150;28;20032;-69
2021/10/09 00:40:11;;;;;;;45.10;28.48;;;6.00;99.90;;;;;;2105700;28;20094;-68
2021/10/09 00:41:11;;;;;;;42.78;27.50;;;6.00;99.90;;;;;;2104949;28;20028;-70
2021/10/09 00:42:12;;;;;;;45.85;28.02;;;5.90;99.90;;;;;;2104864;28;20025;-68
2021/10/09 00:43:15;;;;;;;42.30;26.98;;;5.90;99.90;;;;;;2105087;28;20675;-70
2021/10/09 00:44:17;;;;;;;45.80;28.05;;;5.90;99.90;;;;;;2105116;28;20043;-70
2021/10/09 00:45:20;;;;;;;44.05;27.67;;;5.90;99.90;;;;;;2105178;28;20038;-69
2021/10/09 00:46:21;;;;;;;44.72;27.48;;;5.90;99.90;;;;;;2105959;28;20016;-69
2021/10/09 00:47:24;;;;;;;46.90;27.58;;;5.90;99.90;;;;;;2105688;28;20551;-69
2021/10/09 00:48:25;;;;;;;43.28;27.02;;;5.90;99.90;;;;;;2105080;28;20092;-69
2021/10/09 00:49:25;;;;;;;43.33;26.95;;;5.90;99.90;;;;;;2105151;28;20039;-69
2021/10/09 00:50:27;;;;;;;42.95;27.13;;;5.90;99.90;;;;;;2105027;28;20518;-68
2021/10/09 00:51:28;;;;;;;44.75;27.45;;;5.90;99.90;;;;;;2104212;28;20036;-68
2021/10/09 00:52:31;;;;;;;46.47;28.02;;;5.90;99.90;;;;;;2105142;28;20032;-68
2021/10/09 00:53:36;;;;;;;44.88;28.08;;;5.90;99.90;;;;;;2104666;28;20024;-69
2021/10/09 00:54:47;;;;;;;43.38;27.30;;;5.80;99.90;;;;;;2096828;28;20029;-69
2021/10/09 00:55:51;;;;;;;46.05;28.13;;;5.80;99.90;;;;;;2097557;28;20036;-68
2021/10/09 00:56:55;;;;;;;45.38;27.15;;;5.80;99.90;;;;;;2104901;28;20530;-69
2021/10/09 00:57:58;;;;;;;45.42;27.88;;;5.80;99.90;;;;;;2105568;28;20024;-70
2021/10/09 00:59:00;;;;;;;43.50;27.35;;;5.80;99.90;;;;;;2104972;28;20411;-69
2021/10/09 01:00:03;;;;;;;47.28;27.88;;;5.80;99.90;;;;;;2104901;28;20017;-69
2021/10/09 01:01:04;;;;;;;44.05;26.95;;;5.80;99.90;;;;;;2104753;28;20035;-68
2021/10/09 01:02:06;;;;;;;45.63;27.38;;;5.80;99.90;;;;;;2104124;28;20027;-68
2021/10/09 01:03:07;;;;;;;42.17;26.55;;;5.80;99.90;;;;;;2096570;28;20032;-69
2021/10/09 01:04:09;;;;;;;43.42;26.83;;;5.80;99.90;;;;;;2096355;28;20573;-69
2021/10/09 01:05:11;;;;;;;41.65;26.83;;;5.70;99.90;;;;;;2088433;28;20577;-70
2021/10/09 01:06:11;;;;;;;43.83;26.75;;;5.70;99.90;;;;;;2096533;28;20045;-69
2021/10/09 01:07:12;;;;;;;45.97;27.08;;;5.80;99.90;;;;;;2104715;28;20036;-69
2021/10/09 01:08:14;;;;;;;48.03;28.65;;;5.70;99.90;;;;;;2096251;28;20056;-69
2021/10/09 01:09:16;;;;;;;46.20;27.73;;;5.70;99.90;;;;;;2104696;28;20027;-69
2021/10/09 01:10:16;;;;;;;44.42;27.65;;;5.70;99.90;;;;;;2105393;28;20040;-69
2021/10/09 01:11:17;;;;;;;45.45;26.98;;;5.70;99.90;;;;;;2095424;28;20491;-69
2021/10/09 01:12:18;;;;;;;47.28;27.45;;;5.70;99.90;;;;;;2087822;28;20068;-69
2021/10/09 01:13:18;;;;;;;45.15;26.70;;;5.70;99.90;;;;;;2096338;28;20045;-69
2021/10/09 01:14:19;;;;;;;42.05;26.40;;;5.70;99.90;;;;;;2104565;28;20024;-69
2021/10/09 01:15:22;;;;;;;45.50;27.42;;;5.70;99.90;;;;;;2096249;28;20032;-69
2021/10/09 01:16:28;;;;;;;42.35;26.90;;;5.70;99.90;;;;;;2096941;28;20149;-69
2021/10/09 01:17:29;;;;;;;43.85;26.80;;;5.70;99.90;;;;;;2096369;28;20036;-69
2021/10/09 01:18:30;;;;;;;44.08;27.20;;;5.70;99.90;;;;;;2104708;28;20127;-68
2021/10/09 01:19:32;;;;;;;45.85;26.75;;;5.70;99.90;;;;;;2105184;28;20369;-69
2021/10/09 01:21:01;;;;;;;42.92;26.95;;;5.70;99.90;;;;;;2105318;28;20028;-68
2021/10/09 01:22:06;;;;;;;43.83;26.92;;;5.70;99.90;;;;;;2104167;28;20032;-68
2021/10/09 01:23:08;;;;;;;44.70;27.02;;;5.60;99.90;;;;;;2096398;28;20391;-69
2021/10/09 01:24:13;;;;;;;40.58;26.33;;;5.60;99.90;;;;;;2096600;28;20044;-68
2021/10/09 01:25:13;;;;;;;46.10;27.08;;;5.60;99.90;;;;;;2104659;28;20044;-70
2021/10/09 01:26:15;;;;;;;41.90;26.25;;;5.60;99.90;;;;;;2104581;28;20121;-68
2021/10/09 01:27:17;;;;;;;43.42;27.25;;;5.60;99.90;;;;;;2104641;28;20020;-69
2021/10/09 01:28:18;;;;;;;42.83;27.05;;;5.60;99.90;;;;;;2104661;28;20028;-68
2021/10/09 01:29:20;;;;;;;46.50;27.00;;;5.60;99.90;;;;;;2104477;28;20522;-69
2021/10/09 01:30:25;;;;;;;43.42;27.38;;;5.60;99.90;;;;;;2104533;28;20047;-69
2021/10/09 01:31:27;;;;;;;42.58;26.75;;;5.50;99.90;;;;;;2095344;28;20056;-69
2021/10/09 01:32:27;;;;;;;46.40;28.05;;;5.50;99.90;;;;;;2104561;28;20022;-68
2021/10/09 01:33:28;;;;;;;44.75;27.08;;;5.50;99.90;;;;;;2104659;28;20024;-68
2021/10/09 01:34:30;;;;;;;42.38;27.77;;;5.50;99.90;;;;;;2096182;28;20067;-69
2021/10/09 01:35:47;;;;;;;44.63;27.27;;;5.50;99.90;;;;;;2097527;28;20016;-69
2021/10/09 01:36:48;;;;;;;47.83;27.33;;;5.50;99.90;;;;;;2097410;28;20033;-69
2021/10/09 01:37:48;;;;;;;42.83;26.60;;;5.50;99.90;;;;;;2096074;28;20031;-68
2021/10/09 01:38:50;;;;;;;43.72;27.02;;;5.50;99.90;;;;;;2104433;28;20112;-69
2021/10/09 01:39:56;;;;;;;47.22;26.15;;;5.50;99.90;;;;;;2104624;28;20020;-69
2021/10/09 01:41:02;;;;;;;44.05;26.83;;;5.50;99.90;;;;;;2096771;28;20020;-69
2021/10/09 01:42:03;;;;;;;45.50;26.65;;;5.50;99.90;;;;;;2095612;28;20021;-69
2021/10/09 01:43:12;;;;;;;43.45;26.73;;;5.40;99.90;;;;;;2096280;28;20142;-69
2021/10/09 01:44:14;;;;;;;42.53;26.00;;;5.40;99.90;;;;;;2104771;28;20115;-69
2021/10/09 01:45:15;;;;;;;44.05;26.08;;;5.40;99.90;;;;;;2104533;28;20036;-69
2021/10/09 01:46:15;;;;;;;44.97;26.65;;;5.40;99.90;;;;;;2104621;28;20032;-68
2021/10/09 01:47:17;;;;;;;41.30;26.05;;;5.40;99.90;;;;;;2096328;28;20058;-69
2021/10/09 01:48:32;;;;;;;43.92;26.88;;;5.30;99.90;;;;;;2096214;28;20166;-70
2021/10/09 01:49:34;;;;;;;43.63;26.70;;;5.30;99.90;;;;;;2097989;28;20055;-68
2021/10/09 01:50:42;;;;;;;44.78;27.40;;;5.30;99.90;;;;;;2097126;28;20033;-69
2021/10/09 01:51:44;;;;;;;44.75;27.02;;;5.30;99.90;;;;;;2095682;28;20111;-69
2021/10/09 01:52:45;;;;;;;43.58;26.45;;;5.30;99.90;;;;;;2096177;28;20837;-69
2021/10/09 01:53:47;;;;;;;45.22;27.23;;;5.30;99.90;;;;;;2104335;28;20066;-70
2021/10/09 01:54:49;;;;;;;42.60;27.08;;;5.30;99.90;;;;;;2104518;28;20147;-70
2021/10/09 01:55:52;;;;;;;46.33;27.80;;;5.30;99.90;;;;;;2096489;28;20024;-70
2021/10/09 01:56:53;;;;;;;43.17;27.52;;;5.30;99.90;;;;;;2087798;28;20022;-70
2021/10/09 01:57:56;;;;;;;44.97;27.38;;;5.30;99.90;;;;;;2088290;28;20036;-70
2021/10/09 01:58:58;;;;;;;43.03;26.38;;;5.30;99.90;;;;;;2096512;28;20503;-70
2021/10/09 02:00:07;;;;;;;45.70;27.05;;;5.30;99.90;;;;;;2104554;28;20028;-70
2021/10/09 02:01:19;;;;;;;42.88;26.05;;;5.30;99.90;;;;;;2103892;28;20020;-70
2021/10/09 02:02:20;;;;;;;45.13;25.95;;;5.30;99.90;;;;;;2104570;28;20038;-70
2021/10/09 02:03:21;;;;;;;44.50;26.30;;;5.20;99.90;;;;;;2096232;28;20028;-69
2021/10/09 02:04:25;;;;;;;47.10;28.15;;;5.20;99.90;;;;;;2096349;28;20043;-70
2021/10/09 02:05:26;;;;;;;44.40;26.73;;;5.20;99.90;;;;;;2096508;28;20081;-69
2021/10/09 02:06:27;;;;;;;44.30;26.50;;;5.20;99.90;;;;;;2104391;28;20040;-70
2021/10/09 02:07:29;;;;;;;45.58;27.73;;;5.20;99.90;;;;;;2096064;28;20071;-70
2021/10/09 02:08:31;;;;;;;43.13;26.23;;;5.20;99.90;;;;;;2088606;28;20032;-70
2021/10/09 02:09:32;;;;;;;43.63;26.88;;;5.20;99.90;;;;;;2096152;28;20076;-70
2021/10/09 02:10:43;;;;;;;48.22;26.98;;;5.10;99.90;;;;;;2096322;28;20517;-70
2021/10/09 02:11:48;;;;;;;43.27;26.97;;;5.10;99.90;;;;;;2097710;28;20036;-70
2021/10/09 02:12:50;;;;;;;43.28;26.27;;;5.20;99.90;;;;;;2097517;28;20775;-71
2021/10/09 02:15:06;;;;;;;41.97;26.20;;;5.10;99.90;;;;;;2097856;28;20028;-70
2021/10/09 02:24:56;;;;;;;42.58;26.10;;;5.10;99.90;;;;;;2088873;28;20025;-70
2021/10/09 02:25:57;;;;;;;44.20;26.77;;;5.00;99.90;;;;;;2101693;28;20568;-70
2021/10/09 02:27:00;;;;;;;46.25;27.40;;;5.00;99.90;;;;;;2097534;28;20028;-70
2021/10/09 02:28:02;;;;;;;44.58;27.88;;;5.00;99.90;;;;;;2097599;28;20107;-70
2021/10/09 02:29:03;;;;;;;45.67;26.77;;;5.00;99.90;;;;;;2097651;28;20032;-70
2021/10/09 02:30:04;;;;;;;49.75;27.23;;;5.00;99.90;;;;;;2106171;28;20407;-70
2021/10/09 02:31:04;;;;;;;42.65;27.02;;;5.00;99.90;;;;;;2105938;28;20689;-70
2021/10/09 02:32:06;;;;;;;44.45;26.45;;;5.00;99.90;;;;;;2097216;28;20094;-70
2021/10/09 02:33:07;;;;;;;44.15;26.88;;;5.00;99.90;;;;;;2105974;28;20698;-70
2021/10/09 02:34:08;;;;;;;49.10;27.33;;;5.00;99.90;;;;;;2105819;28;20502;-70
2021/10/09 02:35:09;;;;;;;43.63;26.70;;;5.00;99.90;;;;;;2097443;28;20035;-70
2021/10/09 02:36:11;;;;;;;44.65;27.60;;;5.00;99.90;;;;;;2097644;28;20062;-69
2021/10/09 02:37:13;;;;;;;44.42;26.35;;;5.00;99.90;;;;;;2105862;28;20680;-70
2021/10/09 02:38:17;;;;;;;43.17;26.33;;;5.00;99.90;;;;;;2097859;28;20103;-70
2021/10/09 02:39:17;;;;;;;45.40;26.75;;;5.00;99.90;;;;;;2097447;28;20070;-70
2021/10/09 02:40:18;;;;;;;45.35;26.83;;;5.00;99.90;;;;;;2105759;28;20032;-70
2021/10/09 02:41:19;;;;;;;43.63;26.75;;;4.90;99.90;;;;;;2104939;28;20384;-70
2021/10/09 02:42:21;;;;;;;42.72;27.05;;;4.90;99.90;;;;;;2105450;28;20047;-70
2021/10/09 02:43:22;;;;;;;44.05;26.92;;;4.90;99.90;;;;;;2097372;28;20032;-69
2021/10/09 02:44:25;;;;;;;43.63;26.20;;;4.90;99.90;;;;;;2097804;28;20048;-69
2021/10/09 02:45:26;;;;;;;45.38;27.30;;;4.90;99.90;;;;;;2089097;28;20427;-69
2021/10/09 02:46:26;;;;;;;44.22;27.02;;;4.90;99.90;;;;;;2097470;28;20491;-69
2021/10/09 02:47:27;;;;;;;45.25;26.48;;;4.90;99.90;;;;;;2105831;28;20031;-69
2021/10/09 02:48:28;;;;;;;42.42;26.27;;;4.90;99.90;;;;;;2105801;28;20127;-69
2021/10/09 02:49:28;;;;;;;43.13;25.58;;;4.90;99.90;;;;;;2105638;28;20031;-69
2021/10/09 02:50:30;;;;;;;41.88;25.95;;;4.90;99.90;;;;;;2097314;28;20530;-70
2021/10/09 02:51:30;;;;;;;43.72;26.35;;;4.90;99.90;;;;;;2096669;28;20035;-69
2021/10/09 02:52:31;;;;;;;42.42;26.10;;;4.90;99.90;;;;;;2097197;28;20602;-71
2021/10/09 02:53:32;;;;;;;42.13;26.95;;;4.80;99.90;;;;;;2097305;28;20024;-69
2021/10/09 02:54:33;;;;;;;44.58;27.15;;;4.80;99.90;;;;;;2097606;28;20685;-69
2021/10/09 02:55:36;;;;;;;45.08;27.70;;;4.80;99.90;;;;;;2098472;28;20032;-70
2021/10/09 02:56:36;;;;;;;45.50;28.20;;;4.80;99.90;;;;;;2107401;28;20023;-70
2021/10/09 02:57:39;;;;;;;45.65;28.05;;;4.80;99.90;;;;;;2101192;28;20020;-70
2021/10/09 02:58:43;;;;;;;44.65;26.73;;;4.80;99.90;;;;;;2101362;28;20032;-69
2021/10/09 02:59:47;;;;;;;45.30;26.58;;;4.80;99.90;;;;;;2106469;28;20024;-69
2021/10/09 03:00:50;;;;;;;41.22;26.83;;;4.80;99.90;;;;;;2098275;28;20080;-70
2021/10/09 03:01:52;;;;;;;45.28;28.77;;;4.80;99.90;;;;;;2105314;28;20084;-70
2021/10/09 03:02:55;;;;;;;46.90;28.77;;;4.80;99.90;;;;;;2097634;28;20032;-70
2021/10/09 03:03:57;;;;;;;43.83;29.00;;;4.80;99.90;;;;;;2098169;28;20025;-70
2021/10/09 03:05:05;;;;;;;45.85;28.83;;;4.80;99.90;;;;;;2097551;28;20063;-71
2021/10/09 03:06:06;;;;;;;44.45;28.10;;;4.80;99.90;;;;;;2098731;28;20035;-69
2021/10/09 03:07:08;;;;;;;46.80;28.25;;;4.80;99.90;;;;;;2097765;28;20484;-69
2021/10/09 03:08:13;;;;;;;43.30;27.90;;;4.80;99.90;;;;;;2105880;28;20028;-69
2021/10/09 03:09:14;;;;;;;45.75;27.80;;;4.80;99.90;;;;;;2098176;28;20587;-70
2021/10/09 03:10:15;;;;;;;46.05;27.88;;;4.70;99.90;;;;;;2106002;28;20032;-70
2021/10/09 03:11:18;;;;;;;42.88;28.10;;;4.70;99.90;;;;;;2104803;28;20020;-69
2021/10/09 03:12:20;;;;;;;41.38;27.58;;;4.70;99.90;;;;;;2097574;28;20043;-70
2021/10/09 03:13:21;;;;;;;46.88;27.25;;;4.70;99.90;;;;;;2097310;28;20036;-70
2021/10/09 03:14:24;;;;;;;45.45;27.58;;;4.70;99.90;;;;;;2097774;28;20029;-70
2021/10/09 03:15:26;;;;;;;46.92;27.75;;;4.70;99.90;;;;;;2097555;28;20059;-69
2021/10/09 03:16:29;;;;;;;46.15;27.88;;;4.70;99.90;;;;;;2098138;28;20471;-70
2021/10/09 03:17:32;;;;;;;44.97;27.23;;;4.60;99.90;;;;;;2105614;28;20483;-70
2021/10/09 03:18:36;;;;;;;45.35;27.17;;;4.60;99.90;;;;;;2098111;28;20064;-70
2021/10/09 03:19:39;;;;;;;46.20;28.02;;;4.60;99.90;;;;;;2097463;28;20082;-70
2021/10/09 03:20:40;;;;;;;44.95;26.15;;;4.60;99.90;;;;;;2105656;28;20016;-70
2021/10/09 03:21:44;;;;;;;45.50;27.75;;;4.60;99.90;;;;;;2103991;28;20031;-70
2021/10/09 03:22:47;;;;;;;43.35;27.00;;;4.60;99.90;;;;;;2105684;28;20056;-70
2021/10/09 03:23:49;;;;;;;45.67;26.60;;;4.60;99.90;;;;;;2105688;28;20532;-69
2021/10/09 03:24:51;;;;;;;42.17;26.77;;;4.60;99.90;;;;;;2097720;28;20027;-69
2021/10/09 03:25:52;;;;;;;44.60;27.67;;;4.60;99.90;;;;;;2106411;28;20028;-69
2021/10/09 03:26:55;;;;;;;44.25;27.52;;;4.60;99.90;;;;;;2106868;28;20543;-68
2021/10/09 03:27:58;;;;;;;42.22;26.85;;;4.60;99.90;;;;;;2106284;28;20020;-70
2021/10/09 03:29:00;;;;;;;42.25;27.15;;;4.60;99.90;;;;;;2097513;28;20472;-69
2021/10/09 03:30:05;;;;;;;47.70;28.10;;;4.60;99.90;;;;;;2098176;28;20047;-69
2021/10/09 03:31:09;;;;;;;44.20;26.73;;;4.60;99.90;;;;;;2105106;28;20020;-69
2021/10/09 03:32:11;;;;;;;41.03;25.88;;;4.60;99.90;;;;;;2097162;28;20028;-69
2021/10/09 03:33:13;;;;;;;41.20;26.13;;;4.60;99.90;;;;;;2097132;28;20098;-68
2021/10/09 03:34:15;;;;;;;45.67;27.92;;;4.60;99.90;;;;;;2097231;28;20027;-68
2021/10/09 03:35:19;;;;;;;45.55;27.27;;;4.60;99.90;;;;;;2097451;28;20032;-70
2021/10/09 03:36:23;;;;;;;46.08;27.52;;;4.60;99.90;;;;;;2097546;28;20024;-69
2021/10/09 03:37:26;;;;;;;43.17;27.13;;;4.50;99.90;;;;;;2097158;28;20119;-70
2021/10/09 03:38:26;;;;;;;46.58;27.58;;;4.50;99.90;;;;;;2105481;28;20824;-71
2021/10/09 03:39:30;;;;;;;48.38;28.52;;;4.50;99.90;;;;;;2097082;28;20028;-70
2021/10/09 03:40:32;;;;;;;48.80;27.42;;;4.50;99.90;;;;;;2089572;28;20047;-70
2021/10/09 03:41:39;;;;;;;48.17;28.05;;;4.50;99.90;;;;;;2096372;28;20040;-70
2021/10/09 03:42:46;;;;;;;46.08;28.02;;;4.50;99.90;;;;;;2097349;28;20498;-69
2021/10/09 03:43:47;;;;;;;46.60;27.98;;;4.50;99.90;;;;;;2097916;28;20031;-70
2021/10/09 03:44:53;;;;;;;42.45;27.40;;;4.50;99.90;;;;;;2096992;28;20064;-69
2021/10/09 03:46:00;;;;;;;44.72;27.20;;;4.50;99.90;;;;;;2097820;28;20016;-69
2021/10/09 03:47:18;;;;;;;46.67;28.75;;;4.50;99.90;;;;;;2105365;28;20024;-69
2021/10/09 03:53:27;;;;;;;45.70;28.05;;;4.40;99.90;;;;;;2105895;28;20105;-69
2021/10/09 03:54:28;;;;;;;44.42;27.20;;;4.40;99.90;;;;;;2105197;28;20142;-70
2021/10/09 03:55:29;;;;;;;42.22;26.83;;;4.40;99.90;;;;;;2096945;28;20016;-70
2021/10/09 03:56:29;;;;;;;51.65;28.67;;;4.40;99.90;;;;;;2096900;28;20485;-69
2021/10/09 03:57:30;;;;;;;49.55;29.10;;;4.30;99.90;;;;;;2105326;28;20032;-70
2021/10/09 03:58:31;;;;;;;49.65;29.27;;;4.30;99.90;;;;;;2096712;28;20739;-70
2021/10/09 03:59:32;;;;;;;47.38;28.35;;;4.30;99.90;;;;;;2088809;28;20032;-69
2021/10/09 04:00:32;;;;;;;45.75;27.83;;;4.30;99.90;;;;;;2096902;28;20025;-70
2021/10/09 04:01:37;;;;;;;46.92;27.85;;;4.30;99.90;;;;;;2104303;28;20418;-70
2021/10/09 04:02:39;;;;;;;47.22;27.55;;;4.30;99.90;;;;;;2096822;28;20132;-70
2021/10/09 04:03:39;;;;;;;46.45;27.67;;;4.20;99.90;;;;;;2096756;28;20066;-70
2021/10/09 04:04:40;;;;;;;51.25;29.00;;;4.20;99.90;;;;;;2096796;28;20031;-69
2021/10/09 04:05:41;;;;;;;47.70;28.05;;;4.20;99.90;;;;;;2097233;28;20503;-70
2021/10/09 04:06:43;;;;;;;44.47;28.20;;;4.20;99.90;;;;;;2097045;28;20021;-70
2021/10/09 04:07:45;;;;;;;47.45;27.50;;;4.20;99.90;;;;;;2105307;28;20028;-70
2021/10/09 04:08:48;;;;;;;46.72;27.52;;;4.20;99.90;;;;;;2096859;28;20028;-69
2021/10/09 04:09:50;;;;;;;45.00;27.52;;;4.10;99.90;;;;;;2105123;28;20020;-70
2021/10/09 04:10:51;;;;;;;43.00;27.08;;;4.10;99.90;;;;;;2096711;28;20054;-70
2021/10/09 04:11:52;;;;;;;48.45;28.33;;;4.10;99.90;;;;;;2095937;28;20073;-69
2021/10/09 04:12:52;;;;;;;44.38;28.17;;;4.10;99.90;;;;;;2096763;28;20036;-70
2021/10/09 04:13:53;;;;;;;47.00;28.50;;;4.10;99.90;;;;;;2096761;28;20032;-70
2021/10/09 04:14:54;;;;;;;45.60;28.38;;;4.10;99.90;;;;;;2105109;28;20157;-70
2021/10/09 04:15:55;;;;;;;47.80;28.63;;;4.10;99.90;;;;;;2105080;28;20016;-70
2021/10/09 04:16:56;;;;;;;47.45;29.67;;;4.10;99.90;;;;;;2105258;28;20077;-70
2021/10/09 04:17:56;;;;;;;46.60;28.15;;;4.10;99.90;;;;;;2105030;28;20070;-70
2021/10/09 04:18:58;;;;;;;44.42;28.88;;;4.00;99.90;;;;;;2105112;28;20032;-70
2021/10/09 04:19:58;;;;;;;48.85;29.95;;;4.00;99.90;;;;;;2096749;28;20024;-70
2021/10/09 04:20:59;;;;;;;48.65;29.15;;;4.00;99.90;;;;;;2096533;28;20022;-70
2021/10/09 04:22:00;;;;;;;49.55;29.27;;;4.00;99.90;;;;;;2095850;28;20043;-69
2021/10/09 04:23:00;;;;;;;49.45;29.02;;;4.00;99.90;;;;;;2105027;28;20054;-69
2021/10/09 04:24:01;;;;;;;50.00;28.85;;;4.00;99.90;;;;;;2105714;28;20128;-68
2021/10/09 04:25:01;;;;;;;46.63;28.75;;;4.00;99.90;;;;;;2105052;28;20079;-69
2021/10/09 04:26:02;;;;;;;50.10;29.13;;;4.00;99.90;;;;;;2105089;28;20054;-68
2021/10/09 04:27:04;;;;;;;49.15;29.60;;;4.00;99.90;;;;;;2105141;28;20024;-70
2021/10/09 04:28:06;;;;;;;47.20;28.08;;;4.00;99.90;;;;;;2105078;28;20028;-68
2021/10/09 04:29:08;;;;;;;46.15;28.23;;;3.90;99.90;;;;;;2105082;28;20463;-68
2021/10/09 04:30:10;;;;;;;45.50;28.20;;;3.90;99.90;;;;;;2096654;28;20036;-70
2021/10/09 04:31:10;;;;;;;51.03;29.63;;;3.90;99.90;;;;;;2096274;28;20032;-69
2021/10/09 04:32:12;;;;;;;48.47;28.40;;;3.90;99.90;;;;;;2105037;28;20079;-68
2021/10/09 04:33:12;;;;;;;47.92;27.85;;;3.90;99.90;;;;;;2104625;28;20036;-68
2021/10/09 04:34:13;;;;;;;49.67;28.58;;;3.90;99.90;;;;;;2104308;28;20794;-68
2021/10/09 04:35:13;;;;;;;47.13;28.42;;;3.90;99.90;;;;;;2096480;28;20153;-69
2021/10/09 04:36:15;;;;;;;46.42;27.67;;;3.90;99.90;;;;;;2105224;28;20016;-69
2021/10/09 04:37:16;;;;;;;47.20;29.13;;;3.90;99.90;;;;;;2105599;28;20039;-68
2021/10/09 04:38:16;;;;;;;44.33;28.50;;;3.90;99.90;;;;;;2104935;28;20034;-69
2021/10/09 04:39:20;;;;;;;47.60;28.95;;;3.90;99.90;;;;;;2096673;28;20044;-68
2021/10/09 04:40:22;;;;;;;45.65;28.70;;;3.90;99.90;;;;;;2097040;28;20452;-69
2021/10/09 04:41:23;;;;;;;44.83;28.73;;;3.90;99.90;;;;;;2103994;28;20028;-69
2021/10/09 04:42:24;;;;;;;45.97;28.80;;;3.80;99.90;;;;;;2104854;28;20027;-68
2021/10/09 04:43:24;;;;;;;48.80;29.00;;;3.80;99.90;;;;;;2096427;28;20036;-68
2021/10/09 04:44:25;;;;;;;51.97;30.13;;;3.80;99.90;;;;;;2096496;28;20033;-68
2021/10/09 04:45:26;;;;;;;46.83;28.98;;;3.80;99.90;;;;;;2096410;28;20561;-68
2021/10/09 04:46:26;;;;;;;45.38;28.65;;;3.80;99.90;;;;;;2096468;28;20039;-69
2021/10/09 04:47:27;;;;;;;46.97;29.45;;;3.80;99.90;;;;;;2096383;28;20059;-69
2021/10/09 04:48:28;;;;;;;48.80;29.52;;;3.80;99.90;;;;;;2096639;28;20043;-69
2021/10/09 04:49:31;;;;;;;47.15;28.98;;;3.90;99.90;;;;;;2096759;28;20644;-68
2021/10/09 04:50:34;;;;;;;47.08;29.05;;;3.80;99.90;;;;;;2096508;28;20551;-68
2021/10/09 04:51:37;;;;;;;49.97;29.45;;;3.90;99.90;;;;;;2088331;28;20041;-69
2021/10/09 04:52:38;;;;;;;47.97;30.05;;;3.90;99.90;;;;;;2096324;28;20020;-69
2021/10/09 04:53:40;;;;;;;53.78;30.95;;;3.90;99.90;;;;;;2104823;28;20051;-68
2021/10/09 04:54:42;;;;;;;54.03;30.92;;;3.90;99.90;;;;;;2096490;28;20024;-68
2021/10/09 04:55:46;;;;;;;52.85;29.98;;;3.90;99.90;;;;;;2096878;28;20021;-70
2021/10/09 04:56:47;;;;;;;49.22;29.73;;;4.00;99.90;;;;;;2105005;28;20062;-68
2021/10/09 04:57:50;;;;;;;50.58;30.45;;;4.00;99.90;;;;;;2104855;28;20031;-69
2021/10/09 04:58:52;;;;;;;47.42;29.25;;;4.00;99.90;;;;;;2096704;28;20043;-69
2021/10/09 04:59:55;;;;;;;48.47;30.17;;;4.10;99.90;;;;;;2096661;28;20017;-69
2021/10/09 05:00:57;;;;;;;50.40;30.05;;;4.10;99.90;;;;;;2104669;28;20016;-69
2021/10/09 05:01:58;;;;;;;47.15;29.45;;;4.20;99.90;;;;;;2095656;28;20495;-70
2021/10/09 05:03:01;;;;;;;45.45;28.55;;;4.20;99.90;;;;;;2088662;28;20033;-69
2021/10/09 05:04:04;;;;;;;47.50;29.60;;;4.30;99.90;;;;;;2096669;28;20150;-70
2021/10/09 05:05:07;;;;;;;47.78;29.10;;;4.40;99.90;;;;;;2096571;28;20592;-70
2021/10/09 05:06:09;;;;;;;47.55;28.63;;;4.40;99.90;;;;;;2104558;28;20495;-70
2021/10/09 05:07:11;;;;;;;45.85;28.88;;;4.50;99.90;;;;;;2096435;28;20031;-70
2021/10/09 05:08:13;;;;;;;48.67;28.50;;;4.50;99.90;;;;;;2096724;28;20067;-71
2021/10/09 05:09:15;;;;;;;51.97;30.33;;;4.60;99.90;;;;;;2096570;28;20572;-70
2021/10/09 05:10:18;;;;;;;48.53;30.20;;;4.60;99.90;;;;;;2104909;28;20035;-70
2021/10/09 05:11:20;;;;;;;53.05;33.15;;;4.60;99.90;;;;;;2095618;28;20032;-71
2021/10/09 05:12:23;;;;;;;52.92;31.50;;;4.70;99.90;;;;;;2096559;28;20064;-70
2021/10/09 05:13:25;;;;;;;51.08;30.75;;;4.70;99.90;;;;;;2096591;28;20061;-71
2021/10/09 05:14:28;;;;;;;53.33;31.23;;;4.70;99.90;;;;;;2096687;28;20028;-70
2021/10/09 05:15:33;;;;;;;52.60;30.45;;;4.80;99.90;;;;;;2104838;28;20118;-70
2021/10/09 05:16:34;;;;;;;49.17;31.08;;;4.80;99.90;;;;;;2097052;28;20031;-69
2021/10/09 05:17:38;;;;;;;53.72;31.10;;;4.80;99.90;;;;;;2096539;28;20087;-69
2021/10/09 05:18:38;;;;;;;52.70;31.02;;;4.90;99.90;;;;;;2104904;28;20055;-69
2021/10/09 05:19:42;;;;;;;52.33;31.52;;;4.90;99.90;;;;;;2104694;28;20519;-69
2021/10/09 05:20:44;;;;;;;51.03;30.63;;;5.00;99.90;;;;;;2096853;28;20141;-68
2021/10/09 05:21:49;;;;;;;51.20;31.10;;;5.00;99.90;;;;;;2096253;28;20035;-69
2021/10/09 05:22:50;;;;;;;48.53;31.10;;;5.00;99.90;;;;;;2096357;28;20032;-69
2021/10/09 05:23:52;;;;;;;50.15;30.25;;;5.10;99.90;;;;;;2096471;28;20060;-70
2021/10/09 05:24:55;;;;;;;52.65;31.77;;;5.10;99.90;;;;;;2096659;28;20029;-70
2021/10/09 05:25:58;;;;;;;49.67;30.55;;;5.10;99.90;;;;;;2096818;28;20043;-69
2021/10/09 05:27:03;;;;;;;52.83;31.70;;;5.20;99.90;;;;;;2105382;28;20541;-69
2021/10/09 05:28:10;;;;;;;55.60;32.55;;;5.10;99.90;;;;;;2105211;28;20028;-68
2021/10/09 05:29:16;;;;;;;50.33;31.35;;;5.20;99.90;;;;;;2104677;28;20050;-69
2021/10/09 05:30:17;;;;;;;49.55;30.73;;;5.20;99.90;;;;;;2097149;28;20067;-69
2021/10/09 05:31:30;;;;;;;53.50;33.28;;;5.20;99.90;;;;;;2095574;28;20716;-68
2021/10/09 05:32:36;;;;;;;50.15;30.45;;;5.20;99.90;;;;;;2098250;28;20025;-68
2021/10/09 05:33:38;;;;;;;50.47;31.42;;;5.30;99.90;;;;;;2096660;28;20025;-69
2021/10/09 05:34:40;;;;;;;46.30;29.50;;;5.30;99.90;;;;;;2104684;28;20028;-70